sensor_id;sensor_type;location;lat;lon;timestamp;temperature;humidity
32394;DHT22;18853;45.426;9.206;2023-07-22T00:01:25;29.80;48.00
32394;DHT22;18853;45.426;9.206;2023-07-22T00:03:51;30.00;47.80
32394;DHT22;18853;45.426;9.206;2023-07-22T00:06:16;30.10;47.70
32394;DHT22;18853;45.426;9.206;2023-07-22T00:08:42;30.20;47.50
32394;DHT22;18853;45.426;9.206;2023-07-22T00:11:08;30.20;47.50
32394;DHT22;18853;45.426;9.206;2023-07-22T00:13:34;30.30;47.60
32394;DHT22;18853;45.426;9.206;2023-07-22T00:16:00;30.30;47.40
32394;DHT22;18853;45.426;9.206;2023-07-22T00:18:27;30.40;47.30
32394;DHT22;18853;45.426;9.206;2023-07-22T00:20:54;30.30;47.00
32394;DHT22;18853;45.426;9.206;2023-07-22T00:23:20;30.20;47.70
32394;DHT22;18853;45.426;9.206;2023-07-22T00:25:46;30.20;47.20
32394;DHT22;18853;45.426;9.206;2023-07-22T00:28:12;30.30;47.70
32394;DHT22;18853;45.426;9.206;2023-07-22T00:30:38;30.30;46.90
32394;DHT22;18853;45.426;9.206;2023-07-22T00:33:04;30.20;46.90
32394;DHT22;18853;45.426;9.206;2023-07-22T00:35:29;30.00;46.90
32394;DHT22;18853;45.426;9.206;2023-07-22T00:37:55;29.90;47.50
32394;DHT22;18853;45.426;9.206;2023-07-22T00:40:21;29.80;47.80
32394;DHT22;18853;45.426;9.206;2023-07-22T00:42:46;29.90;47.70
32394;DHT22;18853;45.426;9.206;2023-07-22T00:45:12;29.90;47.90
32394;DHT22;18853;45.426;9.206;2023-07-22T00:47:38;29.80;47.60
32394;DHT22;18853;45.426;9.206;2023-07-22T00:50:06;29.90;47.90
32394;DHT22;18853;45.426;9.206;2023-07-22T00:52:33;29.90;47.60
32394;DHT22;18853;45.426;9.206;2023-07-22T00:54:59;30.00;47.50
32394;DHT22;18853;45.426;9.206;2023-07-22T00:57:25;30.10;47.40
32394;DHT22;18853;45.426;9.206;2023-07-22T00:59:51;30.10;47.20
32394;DHT22;18853;45.426;9.206;2023-07-22T01:02:18;30.10;47.30
32394;DHT22;18853;45.426;9.206;2023-07-22T01:04:44;30.00;47.30
32394;DHT22;18853;45.426;9.206;2023-07-22T01:07:10;29.90;47.30
32394;DHT22;18853;45.426;9.206;2023-07-22T01:09:37;29.80;47.50
32394;DHT22;18853;45.426;9.206;2023-07-22T01:12:04;29.80;47.70
32394;DHT22;18853;45.426;9.206;2023-07-22T01:14:35;29.90;47.60
32394;DHT22;18853;45.426;9.206;2023-07-22T01:17:06;29.90;47.50
32394;DHT22;18853;45.426;9.206;2023-07-22T01:19:33;30.00;47.50
32394;DHT22;18853;45.426;9.206;2023-07-22T01:22:04;30.00;47.30
32394;DHT22;18853;45.426;9.206;2023-07-22T01:24:32;30.00;47.30
32394;DHT22;18853;45.426;9.206;2023-07-22T01:26:58;30.00;47.30
32394;DHT22;18853;45.426;9.206;2023-07-22T01:29:24;30.00;47.40
32394;DHT22;18853;45.426;9.206;2023-07-22T01:31:53;30.00;47.40
32394;DHT22;18853;45.426;9.206;2023-07-22T01:34:19;30.00;47.50
32394;DHT22;18853;45.426;9.206;2023-07-22T01:36:46;30.00;47.40
32394;DHT22;18853;45.426;9.206;2023-07-22T01:39:15;30.00;47.50
32394;DHT22;18853;45.426;9.206;2023-07-22T01:41:42;29.90;47.60
32394;DHT22;18853;45.426;9.206;2023-07-22T01:44:08;29.90;47.60
32394;DHT22;18853;45.426;9.206;2023-07-22T01:46:34;29.90;47.60
32394;DHT22;18853;45.426;9.206;2023-07-22T01:49:01;29.80;47.90
32394;DHT22;18853;45.426;9.206;2023-07-22T01:51:27;29.80;48.00
32394;DHT22;18853;45.426;9.206;2023-07-22T01:53:53;29.60;48.00
32394;DHT22;18853;45.426;9.206;2023-07-22T01:56:19;29.60;48.00
32394;DHT22;18853;45.426;9.206;2023-07-22T01:58:45;29.70;48.10
32394;DHT22;18853;45.426;9.206;2023-07-22T02:01:11;29.70;48.00
32394;DHT22;18853;45.426;9.206;2023-07-22T02:03:40;29.80;47.70
32394;DHT22;18853;45.426;9.206;2023-07-22T02:06:06;29.90;47.40
32394;DHT22;18853;45.426;9.206;2023-07-22T02:08:32;29.90;47.40
32394;DHT22;18853;45.426;9.206;2023-07-22T02:11:03;29.90;47.40
32394;DHT22;18853;45.426;9.206;2023-07-22T02:13:32;30.00;47.30
32394;DHT22;18853;45.426;9.206;2023-07-22T02:15:59;29.90;47.30
32394;DHT22;18853;45.426;9.206;2023-07-22T02:18:25;29.90;47.60
32394;DHT22;18853;45.426;9.206;2023-07-22T02:20:50;29.90;47.70
32394;DHT22;18853;45.426;9.206;2023-07-22T02:23:16;29.90;47.80
32394;DHT22;18853;45.426;9.206;2023-07-22T02:25:42;30.00;47.90
32394;DHT22;18853;45.426;9.206;2023-07-22T02:28:08;30.00;47.70
32394;DHT22;18853;45.426;9.206;2023-07-22T02:30:34;30.10;47.70
32394;DHT22;18853;45.426;9.206;2023-07-22T02:33:01;30.10;47.60
32394;DHT22;18853;45.426;9.206;2023-07-22T02:35:27;30.10;47.40
32394;DHT22;18853;45.426;9.206;2023-07-22T02:37:53;30.10;47.60
32394;DHT22;18853;45.426;9.206;2023-07-22T02:40:19;30.00;47.50
32394;DHT22;18853;45.426;9.206;2023-07-22T02:42:45;30.00;47.60
32394;DHT22;18853;45.426;9.206;2023-07-22T02:45:10;30.00;47.70
32394;DHT22;18853;45.426;9.206;2023-07-22T02:47:38;30.00;47.70
32394;DHT22;18853;45.426;9.206;2023-07-22T02:50:06;30.00;47.80
32394;DHT22;18853;45.426;9.206;2023-07-22T02:52:32;30.00;47.90
32394;DHT22;18853;45.426;9.206;2023-07-22T02:57:31;30.00;47.90
32394;DHT22;18853;45.426;9.206;2023-07-22T02:59:57;30.00;47.90
32394;DHT22;18853;45.426;9.206;2023-07-22T03:02:23;30.00;47.90
32394;DHT22;18853;45.426;9.206;2023-07-22T03:04:48;30.00;48.00
32394;DHT22;18853;45.426;9.206;2023-07-22T03:07:14;30.00;48.00
32394;DHT22;18853;45.426;9.206;2023-07-22T03:09:40;30.00;47.80
32394;DHT22;18853;45.426;9.206;2023-07-22T03:12:06;30.00;47.70
32394;DHT22;18853;45.426;9.206;2023-07-22T03:14:32;30.00;47.80
32394;DHT22;18853;45.426;9.206;2023-07-22T03:17:02;29.90;47.90
32394;DHT22;18853;45.426;9.206;2023-07-22T03:19:29;30.00;47.80
32394;DHT22;18853;45.426;9.206;2023-07-22T03:21:55;29.90;47.80
32394;DHT22;18853;45.426;9.206;2023-07-22T03:24:21;29.90;47.70
32394;DHT22;18853;45.426;9.206;2023-07-22T03:26:46;29.90;47.90
32394;DHT22;18853;45.426;9.206;2023-07-22T03:29:12;29.90;48.00
32394;DHT22;18853;45.426;9.206;2023-07-22T03:31:38;29.90;47.90
32394;DHT22;18853;45.426;9.206;2023-07-22T03:34:04;29.90;48.10
32394;DHT22;18853;45.426;9.206;2023-07-22T03:36:30;29.90;48.00
32394;DHT22;18853;45.426;9.206;2023-07-22T03:38:59;29.90;48.00
32394;DHT22;18853;45.426;9.206;2023-07-22T03:41:25;29.90;48.00
32394;DHT22;18853;45.426;9.206;2023-07-22T03:43:51;29.80;48.20
32394;DHT22;18853;45.426;9.206;2023-07-22T03:46:16;29.90;48.30
32394;DHT22;18853;45.426;9.206;2023-07-22T03:48:42;29.90;48.30
32394;DHT22;18853;45.426;9.206;2023-07-22T03:51:08;29.80;48.10
32394;DHT22;18853;45.426;9.206;2023-07-22T03:53:34;29.80;48.00
32394;DHT22;18853;45.426;9.206;2023-07-22T03:55:59;29.80;48.30
32394;DHT22;18853;45.426;9.206;2023-07-22T03:58:25;29.80;48.40
32394;DHT22;18853;45.426;9.206;2023-07-22T04:00:51;29.80;48.30
32394;DHT22;18853;45.426;9.206;2023-07-22T04:03:16;29.80;48.20
32394;DHT22;18853;45.426;9.206;2023-07-22T04:05:42;29.80;48.30
32394;DHT22;18853;45.426;9.206;2023-07-22T04:08:08;29.80;48.50
32394;DHT22;18853;45.426;9.206;2023-07-22T04:10:33;29.70;48.50
32394;DHT22;18853;45.426;9.206;2023-07-22T04:12:59;29.70;48.70
32394;DHT22;18853;45.426;9.206;2023-07-22T04:15:25;29.70;48.80
32394;DHT22;18853;45.426;9.206;2023-07-22T04:17:50;29.70;48.70
32394;DHT22;18853;45.426;9.206;2023-07-22T04:20:16;29.70;49.00
32394;DHT22;18853;45.426;9.206;2023-07-22T04:22:43;29.70;49.10
32394;DHT22;18853;45.426;9.206;2023-07-22T04:25:09;29.70;49.30
32394;DHT22;18853;45.426;9.206;2023-07-22T04:27:35;29.70;49.20
32394;DHT22;18853;45.426;9.206;2023-07-22T04:30:01;29.70;49.00
32394;DHT22;18853;45.426;9.206;2023-07-22T04:32:27;29.60;49.10
32394;DHT22;18853;45.426;9.206;2023-07-22T04:34:53;29.50;49.20
32394;DHT22;18853;45.426;9.206;2023-07-22T04:37:20;29.50;49.30
32394;DHT22;18853;45.426;9.206;2023-07-22T04:39:49;29.50;49.30
32394;DHT22;18853;45.426;9.206;2023-07-22T04:42:15;29.50;49.60
32394;DHT22;18853;45.426;9.206;2023-07-22T04:44:42;29.50;49.50
32394;DHT22;18853;45.426;9.206;2023-07-22T04:47:07;29.50;49.50
32394;DHT22;18853;45.426;9.206;2023-07-22T04:49:33;29.60;49.50
32394;DHT22;18853;45.426;9.206;2023-07-22T04:51:59;29.60;49.40
32394;DHT22;18853;45.426;9.206;2023-07-22T04:54:24;29.60;49.40
32394;DHT22;18853;45.426;9.206;2023-07-22T04:56:53;29.60;49.30
32394;DHT22;18853;45.426;9.206;2023-07-22T04:59:19;29.60;49.30
32394;DHT22;18853;45.426;9.206;2023-07-22T05:01:44;29.60;49.20
32394;DHT22;18853;45.426;9.206;2023-07-22T05:04:10;29.60;49.20
32394;DHT22;18853;45.426;9.206;2023-07-22T05:06:36;29.60;49.30
32394;DHT22;18853;45.426;9.206;2023-07-22T05:09:01;29.70;49.40
32394;DHT22;18853;45.426;9.206;2023-07-22T05:11:27;29.70;49.40
32394;DHT22;18853;45.426;9.206;2023-07-22T05:13:53;29.70;49.40
32394;DHT22;18853;45.426;9.206;2023-07-22T05:16:19;29.70;49.50
32394;DHT22;18853;45.426;9.206;2023-07-22T05:18:46;29.70;49.50
32394;DHT22;18853;45.426;9.206;2023-07-22T05:21:12;29.70;49.50
32394;DHT22;18853;45.426;9.206;2023-07-22T05:23:37;29.70;49.50
32394;DHT22;18853;45.426;9.206;2023-07-22T05:26:03;29.70;49.40
32394;DHT22;18853;45.426;9.206;2023-07-22T05:28:29;29.80;49.40
32394;DHT22;18853;45.426;9.206;2023-07-22T05:30:56;29.80;49.30
32394;DHT22;18853;45.426;9.206;2023-07-22T05:33:21;29.70;49.30
32394;DHT22;18853;45.426;9.206;2023-07-22T05:35:47;29.80;49.30
32394;DHT22;18853;45.426;9.206;2023-07-22T05:38:13;29.70;49.20
32394;DHT22;18853;45.426;9.206;2023-07-22T05:40:38;29.80;49.30
32394;DHT22;18853;45.426;9.206;2023-07-22T05:43:04;29.80;49.10
32394;DHT22;18853;45.426;9.206;2023-07-22T05:45:30;29.80;49.40
32394;DHT22;18853;45.426;9.206;2023-07-22T05:47:55;29.80;49.50
32394;DHT22;18853;45.426;9.206;2023-07-22T05:50:21;29.70;49.50
32394;DHT22;18853;45.426;9.206;2023-07-22T05:52:47;29.80;49.50
32394;DHT22;18853;45.426;9.206;2023-07-22T05:55:13;29.80;49.50
32394;DHT22;18853;45.426;9.206;2023-07-22T05:57:39;29.80;49.50
32394;DHT22;18853;45.426;9.206;2023-07-22T06:00:05;29.80;49.40
32394;DHT22;18853;45.426;9.206;2023-07-22T06:02:31;29.80;49.40
32394;DHT22;18853;45.426;9.206;2023-07-22T06:04:57;29.80;49.40
32394;DHT22;18853;45.426;9.206;2023-07-22T06:07:23;29.90;49.20
32394;DHT22;18853;45.426;9.206;2023-07-22T06:09:49;29.90;49.30
32394;DHT22;18853;45.426;9.206;2023-07-22T06:12:14;29.90;48.90
32394;DHT22;18853;45.426;9.206;2023-07-22T06:14:40;29.90;49.20
32394;DHT22;18853;45.426;9.206;2023-07-22T06:17:06;29.90;49.10
32394;DHT22;18853;45.426;9.206;2023-07-22T06:19:32;29.90;49.10
32394;DHT22;18853;45.426;9.206;2023-07-22T06:21:57;29.90;49.10
32394;DHT22;18853;45.426;9.206;2023-07-22T06:24:23;29.90;48.90
32394;DHT22;18853;45.426;9.206;2023-07-22T06:26:49;29.80;49.10
32394;DHT22;18853;45.426;9.206;2023-07-22T06:29:14;29.90;49.30
32394;DHT22;18853;45.426;9.206;2023-07-22T06:31:40;29.90;49.30
32394;DHT22;18853;45.426;9.206;2023-07-22T06:34:06;29.90;49.10
32394;DHT22;18853;45.426;9.206;2023-07-22T06:36:31;29.90;49.30
32394;DHT22;18853;45.426;9.206;2023-07-22T06:38:57;29.90;49.10
32394;DHT22;18853;45.426;9.206;2023-07-22T06:41:23;29.90;49.50
32394;DHT22;18853;45.426;9.206;2023-07-22T06:43:50;29.90;49.40
32394;DHT22;18853;45.426;9.206;2023-07-22T06:46:16;29.90;49.20
32394;DHT22;18853;45.426;9.206;2023-07-22T06:48:41;30.00;49.40
32394;DHT22;18853;45.426;9.206;2023-07-22T06:51:07;29.90;49.40
32394;DHT22;18853;45.426;9.206;2023-07-22T06:53:33;30.00;49.50
32394;DHT22;18853;45.426;9.206;2023-07-22T06:55:59;30.00;49.20
32394;DHT22;18853;45.426;9.206;2023-07-22T06:58:24;30.00;49.40
32394;DHT22;18853;45.426;9.206;2023-07-22T07:00:53;30.00;49.30
32394;DHT22;18853;45.426;9.206;2023-07-22T07:03:19;30.10;49.40
32394;DHT22;18853;45.426;9.206;2023-07-22T07:05:54;30.10;49.30
32394;DHT22;18853;45.426;9.206;2023-07-22T07:08:21;30.20;49.20
32394;DHT22;18853;45.426;9.206;2023-07-22T07:10:46;30.10;49.40
32394;DHT22;18853;45.426;9.206;2023-07-22T07:13:12;30.10;49.40
32394;DHT22;18853;45.426;9.206;2023-07-22T07:15:38;30.10;49.20
32394;DHT22;18853;45.426;9.206;2023-07-22T07:18:04;30.10;49.30
32394;DHT22;18853;45.426;9.206;2023-07-22T07:20:30;30.20;49.10
32394;DHT22;18853;45.426;9.206;2023-07-22T07:22:56;30.10;48.90
32394;DHT22;18853;45.426;9.206;2023-07-22T07:25:22;30.20;48.90
32394;DHT22;18853;45.426;9.206;2023-07-22T07:27:47;30.10;48.70
32394;DHT22;18853;45.426;9.206;2023-07-22T07:30:13;30.00;49.00
32394;DHT22;18853;45.426;9.206;2023-07-22T07:32:39;30.00;49.50
32394;DHT22;18853;45.426;9.206;2023-07-22T07:35:06;30.00;49.50
32394;DHT22;18853;45.426;9.206;2023-07-22T07:37:32;30.10;49.50
32394;DHT22;18853;45.426;9.206;2023-07-22T07:39:58;30.10;49.20
32394;DHT22;18853;45.426;9.206;2023-07-22T07:42:27;30.00;49.30
32394;DHT22;18853;45.426;9.206;2023-07-22T07:44:53;30.10;49.40
32394;DHT22;18853;45.426;9.206;2023-07-22T07:47:19;30.00;49.10
32394;DHT22;18853;45.426;9.206;2023-07-22T07:49:45;30.00;49.20
32394;DHT22;18853;45.426;9.206;2023-07-22T07:52:11;30.00;49.50
32394;DHT22;18853;45.426;9.206;2023-07-22T07:54:37;29.90;49.40
32394;DHT22;18853;45.426;9.206;2023-07-22T07:57:02;30.00;49.40
32394;DHT22;18853;45.426;9.206;2023-07-22T07:59:28;30.10;49.50
32394;DHT22;18853;45.426;9.206;2023-07-22T08:01:54;30.10;49.40
32394;DHT22;18853;45.426;9.206;2023-07-22T08:04:19;30.10;49.40
32394;DHT22;18853;45.426;9.206;2023-07-22T08:06:45;30.10;49.50
32394;DHT22;18853;45.426;9.206;2023-07-22T08:09:11;30.10;49.40
32394;DHT22;18853;45.426;9.206;2023-07-22T08:11:41;30.10;49.50
32394;DHT22;18853;45.426;9.206;2023-07-22T08:14:07;30.10;49.60
32394;DHT22;18853;45.426;9.206;2023-07-22T08:16:33;30.10;49.60
32394;DHT22;18853;45.426;9.206;2023-07-22T08:18:59;30.10;49.60
32394;DHT22;18853;45.426;9.206;2023-07-22T08:21:24;30.10;49.60
32394;DHT22;18853;45.426;9.206;2023-07-22T08:23:50;30.10;49.50
32394;DHT22;18853;45.426;9.206;2023-07-22T08:26:16;30.00;49.60
32394;DHT22;18853;45.426;9.206;2023-07-22T08:28:46;30.10;49.90
32394;DHT22;18853;45.426;9.206;2023-07-22T08:31:12;30.00;50.50
32394;DHT22;18853;45.426;9.206;2023-07-22T08:33:38;29.80;50.60
32394;DHT22;18853;45.426;9.206;2023-07-22T08:36:03;29.80;52.30
32394;DHT22;18853;45.426;9.206;2023-07-22T08:38:30;29.80;51.70
32394;DHT22;18853;45.426;9.206;2023-07-22T08:40:57;29.80;51.90
32394;DHT22;18853;45.426;9.206;2023-07-22T08:43:23;29.80;53.00
32394;DHT22;18853;45.426;9.206;2023-07-22T08:45:52;29.80;53.30
32394;DHT22;18853;45.426;9.206;2023-07-22T08:48:18;29.70;52.60
32394;DHT22;18853;45.426;9.206;2023-07-22T08:53:19;29.70;52.70
32394;DHT22;18853;45.426;9.206;2023-07-22T08:55:49;29.60;52.80
32394;DHT22;18853;45.426;9.206;2023-07-22T08:58:15;29.60;52.80
32394;DHT22;18853;45.426;9.206;2023-07-22T09:00:42;29.70;52.90
32394;DHT22;18853;45.426;9.206;2023-07-22T09:03:09;29.70;53.50
32394;DHT22;18853;45.426;9.206;2023-07-22T09:05:36;29.70;53.60
32394;DHT22;18853;45.426;9.206;2023-07-22T09:08:05;29.60;53.70
32394;DHT22;18853;45.426;9.206;2023-07-22T09:10:31;29.50;53.90
32394;DHT22;18853;45.426;9.206;2023-07-22T09:12:59;29.60;54.10
32394;DHT22;18853;45.426;9.206;2023-07-22T09:15:25;29.70;53.60
32394;DHT22;18853;45.426;9.206;2023-07-22T09:17:51;29.70;53.90
32394;DHT22;18853;45.426;9.206;2023-07-22T09:20:17;29.80;54.10
32394;DHT22;18853;45.426;9.206;2023-07-22T09:22:47;29.70;53.80
32394;DHT22;18853;45.426;9.206;2023-07-22T09:25:15;29.70;53.50
32394;DHT22;18853;45.426;9.206;2023-07-22T09:27:41;29.80;53.00
32394;DHT22;18853;45.426;9.206;2023-07-22T09:32:53;29.80;53.90
32394;DHT22;18853;45.426;9.206;2023-07-22T09:35:19;29.80;53.70
32394;DHT22;18853;45.426;9.206;2023-07-22T09:37:45;29.80;53.80
32394;DHT22;18853;45.426;9.206;2023-07-22T09:40:21;29.80;53.60
32394;DHT22;18853;45.426;9.206;2023-07-22T09:42:49;29.90;53.60
32394;DHT22;18853;45.426;9.206;2023-07-22T09:45:19;29.90;53.20
32394;DHT22;18853;45.426;9.206;2023-07-22T09:47:49;29.90;53.50
32394;DHT22;18853;45.426;9.206;2023-07-22T09:50:17;29.90;53.50
32394;DHT22;18853;45.426;9.206;2023-07-22T09:52:52;29.90;53.40
32394;DHT22;18853;45.426;9.206;2023-07-22T09:55:24;30.00;53.50
32394;DHT22;18853;45.426;9.206;2023-07-22T09:57:55;30.00;53.50
32394;DHT22;18853;45.426;9.206;2023-07-22T10:00:23;30.00;53.50
32394;DHT22;18853;45.426;9.206;2023-07-22T10:02:51;29.90;53.60
32394;DHT22;18853;45.426;9.206;2023-07-22T10:05:21;29.90;54.10
32394;DHT22;18853;45.426;9.206;2023-07-22T10:07:55;29.90;54.40
32394;DHT22;18853;45.426;9.206;2023-07-22T10:10:30;30.00;54.70
32394;DHT22;18853;45.426;9.206;2023-07-22T10:12:56;29.90;54.70
32394;DHT22;18853;45.426;9.206;2023-07-22T10:15:25;30.00;54.90
32394;DHT22;18853;45.426;9.206;2023-07-22T10:17:51;30.00;54.60
32394;DHT22;18853;45.426;9.206;2023-07-22T10:20:17;30.00;54.70
32394;DHT22;18853;45.426;9.206;2023-07-22T10:22:46;29.90;54.10
32394;DHT22;18853;45.426;9.206;2023-07-22T10:25:15;29.90;54.30
32394;DHT22;18853;45.426;9.206;2023-07-22T10:27:42;30.00;54.40
32394;DHT22;18853;45.426;9.206;2023-07-22T10:30:13;30.00;54.20
32394;DHT22;18853;45.426;9.206;2023-07-22T10:35:10;29.90;53.40
32394;DHT22;18853;45.426;9.206;2023-07-22T10:37:37;29.90;52.10
32394;DHT22;18853;45.426;9.206;2023-07-22T10:40:27;30.00;53.10
32394;DHT22;18853;45.426;9.206;2023-07-22T10:43:04;30.10;52.70
32394;DHT22;18853;45.426;9.206;2023-07-22T10:45:39;30.20;52.00
32394;DHT22;18853;45.426;9.206;2023-07-22T10:48:10;30.20;51.40
32394;DHT22;18853;45.426;9.206;2023-07-22T10:50:47;30.30;52.50
32394;DHT22;18853;45.426;9.206;2023-07-22T10:53:21;30.30;51.50
32394;DHT22;18853;45.426;9.206;2023-07-22T10:56:23;30.40;51.60
32394;DHT22;18853;45.426;9.206;2023-07-22T11:12:00;30.40;52.20
32394;DHT22;18853;45.426;9.206;2023-07-22T11:14:33;30.40;52.40
32394;DHT22;18853;45.426;9.206;2023-07-22T11:17:01;30.50;52.20
32394;DHT22;18853;45.426;9.206;2023-07-22T11:19:29;30.50;51.90
32394;DHT22;18853;45.426;9.206;2023-07-22T11:21:55;30.50;51.40
32394;DHT22;18853;45.426;9.206;2023-07-22T11:24:23;30.60;51.20
32394;DHT22;18853;45.426;9.206;2023-07-22T11:26:50;30.60;51.10
32394;DHT22;18853;45.426;9.206;2023-07-22T11:31:49;30.60;50.90
32394;DHT22;18853;45.426;9.206;2023-07-22T11:34:20;30.60;51.30
32394;DHT22;18853;45.426;9.206;2023-07-22T11:36:47;30.70;51.30
32394;DHT22;18853;45.426;9.206;2023-07-22T11:39:18;30.70;52.00
32394;DHT22;18853;45.426;9.206;2023-07-22T11:41:45;30.80;51.60
32394;DHT22;18853;45.426;9.206;2023-07-22T11:44:13;30.70;51.40
32394;DHT22;18853;45.426;9.206;2023-07-22T11:47:00;30.80;51.10
32394;DHT22;18853;45.426;9.206;2023-07-22T11:49:37;30.80;50.40
32394;DHT22;18853;45.426;9.206;2023-07-22T11:52:05;30.90;51.40
32394;DHT22;18853;45.426;9.206;2023-07-22T11:54:33;30.90;50.20
32394;DHT22;18853;45.426;9.206;2023-07-22T11:57:10;30.90;50.20
32394;DHT22;18853;45.426;9.206;2023-07-22T11:59:38;31.00;50.20
32394;DHT22;18853;45.426;9.206;2023-07-22T12:02:04;31.00;51.00
32394;DHT22;18853;45.426;9.206;2023-07-22T12:04:32;31.10;50.70
32394;DHT22;18853;45.426;9.206;2023-07-22T12:06:58;31.20;50.30
32394;DHT22;18853;45.426;9.206;2023-07-22T12:09:25;31.30;50.40
32394;DHT22;18853;45.426;9.206;2023-07-22T12:11:58;31.30;49.60
32394;DHT22;18853;45.426;9.206;2023-07-22T12:14:31;31.40;48.10
32394;DHT22;18853;45.426;9.206;2023-07-22T12:16:57;31.40;47.60
32394;DHT22;18853;45.426;9.206;2023-07-22T12:19:23;31.40;46.90
32394;DHT22;18853;45.426;9.206;2023-07-22T12:21:49;31.40;47.70
32394;DHT22;18853;45.426;9.206;2023-07-22T12:24:15;31.40;48.60
32394;DHT22;18853;45.426;9.206;2023-07-22T12:26:41;31.50;48.00
32394;DHT22;18853;45.426;9.206;2023-07-22T12:29:07;31.50;47.60
32394;DHT22;18853;45.426;9.206;2023-07-22T12:31:33;31.60;46.80
32394;DHT22;18853;45.426;9.206;2023-07-22T12:33:59;31.60;46.90
32394;DHT22;18853;45.426;9.206;2023-07-22T12:36:25;31.70;46.50
32394;DHT22;18853;45.426;9.206;2023-07-22T12:38:51;31.70;46.70
32394;DHT22;18853;45.426;9.206;2023-07-22T12:41:17;31.80;46.20
32394;DHT22;18853;45.426;9.206;2023-07-22T12:43:43;31.90;46.80
32394;DHT22;18853;45.426;9.206;2023-07-22T12:46:08;31.90;46.40
32394;DHT22;18853;45.426;9.206;2023-07-22T12:48:34;32.00;45.70
32394;DHT22;18853;45.426;9.206;2023-07-22T12:51:00;32.00;45.90
32394;DHT22;18853;45.426;9.206;2023-07-22T12:53:26;32.00;45.70
32394;DHT22;18853;45.426;9.206;2023-07-22T12:55:52;32.10;46.20
32394;DHT22;18853;45.426;9.206;2023-07-22T12:58:17;32.10;45.80
32394;DHT22;18853;45.426;9.206;2023-07-22T13:00:43;32.20;45.50
32394;DHT22;18853;45.426;9.206;2023-07-22T13:03:09;32.20;45.80
32394;DHT22;18853;45.426;9.206;2023-07-22T13:05:35;32.20;45.70
32394;DHT22;18853;45.426;9.206;2023-07-22T13:08:00;32.20;46.00
32394;DHT22;18853;45.426;9.206;2023-07-22T13:10:27;32.20;45.40
32394;DHT22;18853;45.426;9.206;2023-07-22T13:12:54;32.20;45.80
32394;DHT22;18853;45.426;9.206;2023-07-22T13:15:20;32.30;45.30
32394;DHT22;18853;45.426;9.206;2023-07-22T13:17:46;32.20;45.20
32394;DHT22;18853;45.426;9.206;2023-07-22T13:20:12;32.30;45.20
32394;DHT22;18853;45.426;9.206;2023-07-22T13:22:38;32.40;45.50
32394;DHT22;18853;45.426;9.206;2023-07-22T13:25:04;32.40;45.00
32394;DHT22;18853;45.426;9.206;2023-07-22T13:27:30;32.50;45.30
32394;DHT22;18853;45.426;9.206;2023-07-22T13:29:56;32.50;45.50
32394;DHT22;18853;45.426;9.206;2023-07-22T13:32:23;32.60;44.60
32394;DHT22;18853;45.426;9.206;2023-07-22T13:34:48;32.60;44.20
32394;DHT22;18853;45.426;9.206;2023-07-22T13:37:14;32.70;44.20
32394;DHT22;18853;45.426;9.206;2023-07-22T13:39:40;32.80;44.40
32394;DHT22;18853;45.426;9.206;2023-07-22T13:42:05;32.90;44.80
32394;DHT22;18853;45.426;9.206;2023-07-22T13:44:31;33.00;44.70
32394;DHT22;18853;45.426;9.206;2023-07-22T13:46:57;33.10;45.50
32394;DHT22;18853;45.426;9.206;2023-07-22T13:49:22;33.10;44.60
32394;DHT22;18853;45.426;9.206;2023-07-22T13:51:48;33.10;44.80
32394;DHT22;18853;45.426;9.206;2023-07-22T13:54:14;33.00;44.50
32394;DHT22;18853;45.426;9.206;2023-07-22T13:56:39;33.10;44.80
32394;DHT22;18853;45.426;9.206;2023-07-22T13:59:05;33.20;44.50
32394;DHT22;18853;45.426;9.206;2023-07-22T14:01:31;33.10;44.80
32394;DHT22;18853;45.426;9.206;2023-07-22T14:03:57;33.10;44.70
32394;DHT22;18853;45.426;9.206;2023-07-22T14:06:23;33.20;45.20
32394;DHT22;18853;45.426;9.206;2023-07-22T14:08:49;33.20;44.80
32394;DHT22;18853;45.426;9.206;2023-07-22T14:11:14;33.20;44.10
32394;DHT22;18853;45.426;9.206;2023-07-22T14:13:41;33.20;44.60
32394;DHT22;18853;45.426;9.206;2023-07-22T14:16:06;33.30;44.10
32394;DHT22;18853;45.426;9.206;2023-07-22T14:18:32;33.30;44.00
32394;DHT22;18853;45.426;9.206;2023-07-22T14:20:58;33.30;43.90
32394;DHT22;18853;45.426;9.206;2023-07-22T14:23:24;33.40;43.90
32394;DHT22;18853;45.426;9.206;2023-07-22T14:25:50;33.50;43.80
32394;DHT22;18853;45.426;9.206;2023-07-22T14:28:15;33.50;43.90
32394;DHT22;18853;45.426;9.206;2023-07-22T14:30:41;33.50;43.50
32394;DHT22;18853;45.426;9.206;2023-07-22T14:33:07;33.60;44.40
32394;DHT22;18853;45.426;9.206;2023-07-22T14:35:32;33.60;44.00
32394;DHT22;18853;45.426;9.206;2023-07-22T14:38:00;33.70;43.80
32394;DHT22;18853;45.426;9.206;2023-07-22T14:40:26;33.70;43.30
32394;DHT22;18853;45.426;9.206;2023-07-22T14:42:52;33.80;43.20
32394;DHT22;18853;45.426;9.206;2023-07-22T14:45:17;33.70;43.30
32394;DHT22;18853;45.426;9.206;2023-07-22T14:47:43;33.70;43.00
32394;DHT22;18853;45.426;9.206;2023-07-22T14:50:09;33.70;43.90
32394;DHT22;18853;45.426;9.206;2023-07-22T14:52:35;33.70;43.20
32394;DHT22;18853;45.426;9.206;2023-07-22T14:55:01;33.80;43.30
32394;DHT22;18853;45.426;9.206;2023-07-22T14:57:27;33.80;43.00
32394;DHT22;18853;45.426;9.206;2023-07-22T14:59:55;33.90;42.90
32394;DHT22;18853;45.426;9.206;2023-07-22T15:02:21;33.90;43.00
32394;DHT22;18853;45.426;9.206;2023-07-22T15:04:49;34.00;42.90
32394;DHT22;18853;45.426;9.206;2023-07-22T15:07:15;34.10;43.10
32394;DHT22;18853;45.426;9.206;2023-07-22T15:09:40;34.10;42.50
32394;DHT22;18853;45.426;9.206;2023-07-22T15:12:06;34.10;42.70
32394;DHT22;18853;45.426;9.206;2023-07-22T15:14:33;34.20;42.50
32394;DHT22;18853;45.426;9.206;2023-07-22T15:16:59;34.20;42.70
32394;DHT22;18853;45.426;9.206;2023-07-22T15:19:25;34.20;43.20
32394;DHT22;18853;45.426;9.206;2023-07-22T15:21:50;34.20;42.80
32394;DHT22;18853;45.426;9.206;2023-07-22T15:24:17;34.20;43.00
32394;DHT22;18853;45.426;9.206;2023-07-22T15:26:42;34.20;43.20
32394;DHT22;18853;45.426;9.206;2023-07-22T15:29:08;34.20;43.30
32394;DHT22;18853;45.426;9.206;2023-07-22T15:31:33;34.20;42.80
32394;DHT22;18853;45.426;9.206;2023-07-22T15:33:59;34.20;43.20
32394;DHT22;18853;45.426;9.206;2023-07-22T15:36:25;34.20;43.70
32394;DHT22;18853;45.426;9.206;2023-07-22T15:38:50;34.10;43.30
32394;DHT22;18853;45.426;9.206;2023-07-22T15:41:16;34.20;43.60
32394;DHT22;18853;45.426;9.206;2023-07-22T15:43:42;34.20;43.60
32394;DHT22;18853;45.426;9.206;2023-07-22T15:46:08;34.20;43.50
32394;DHT22;18853;45.426;9.206;2023-07-22T15:48:33;34.20;43.20
32394;DHT22;18853;45.426;9.206;2023-07-22T15:50:59;34.20;43.30
32394;DHT22;18853;45.426;9.206;2023-07-22T15:53:25;34.20;43.40